createdAt,value
2019-01-23T00:00:08.097Z,924.45
2019-01-23T00:01:16.135Z,924.45
2019-01-23T00:02:24.174Z,924.47
2019-01-23T00:03:32.260Z,924.44
2019-01-23T00:04:40.309Z,924.44
2019-01-23T00:05:48.447Z,924.43
2019-01-23T00:06:56.447Z,924.45
2019-01-23T00:08:04.472Z,924.40
2019-01-23T00:09:12.540Z,924.37
2019-01-23T00:10:20.602Z,924.34
2019-01-23T00:11:28.625Z,924.37
2019-01-23T00:12:36.692Z,924.29
2019-01-23T00:13:44.723Z,924.24
2019-01-23T00:14:52.790Z,924.24
2019-01-23T00:16:01.736Z,924.31
2019-01-23T00:17:08.943Z,924.26
2019-01-23T00:18:16.950Z,924.24
2019-01-23T00:19:25.014Z,924.25
2019-01-23T00:20:33.061Z,924.21
2019-01-23T00:21:41.209Z,924.21
2019-01-23T00:22:49.189Z,924.23
2019-01-23T00:23:57.215Z,924.15
2019-01-23T00:25:05.296Z,924.16
2019-01-23T00:26:13.338Z,924.16
2019-01-23T00:27:21.438Z,924.11
2019-01-23T00:28:29.442Z,924.11
2019-01-23T00:29:37.496Z,924.12
2019-01-23T00:30:45.550Z,924.12
2019-01-23T00:31:53.703Z,924.12
2019-01-23T00:33:01.670Z,924.09
2019-01-23T00:34:09.711Z,924.07
2019-01-23T00:35:17.804Z,924.05
2019-01-23T00:36:25.812Z,924.06
2019-01-23T00:37:33.962Z,924.03
2019-01-23T00:38:41.928Z,924.03
2019-01-23T00:39:49.986Z,924.04
2019-01-23T00:40:58.039Z,924.03
2019-01-23T00:42:06.130Z,923.98
2019-01-23T00:43:14.112Z,923.98
2019-01-23T00:44:22.206Z,923.97
2019-01-23T00:45:30.242Z,923.96
2019-01-23T00:46:38.310Z,923.89
2019-01-23T00:47:46.465Z,923.87
2019-01-23T00:48:54.402Z,923.91
2019-01-23T00:50:02.485Z,923.80
2019-01-23T00:51:10.507Z,923.81
2019-01-23T00:52:18.688Z,923.82
2019-01-23T00:53:26.612Z,923.78
2019-01-23T00:54:34.669Z,923.76
2019-01-23T00:55:42.746Z,923.78
2019-01-23T00:56:50.783Z,923.76
2019-01-23T00:57:59.013Z,923.81
2019-01-23T00:59:06.898Z,923.73
2019-01-23T01:00:14.969Z,923.73
2019-01-23T01:01:23.156Z,923.76
2019-01-23T01:02:31.156Z,923.72
2019-01-23T01:03:39.103Z,923.71
2019-01-23T01:04:47.157Z,923.63
2019-01-23T01:05:55.203Z,923.68
2019-01-23T01:07:03.283Z,923.66
2019-01-23T01:08:11.415Z,923.64
2019-01-23T01:09:19.396Z,923.60
2019-01-23T01:10:27.477Z,923.59
2019-01-23T01:11:35.496Z,923.56
2019-01-23T01:12:43.622Z,923.51
2019-01-23T01:13:51.593Z,923.51
2019-01-23T01:14:59.658Z,923.49
2019-01-23T01:16:07.703Z,923.50
2019-01-23T01:17:15.757Z,923.52
2019-01-23T01:18:23.840Z,923.46
2019-01-23T01:19:31.863Z,923.46
2019-01-23T01:20:39.904Z,923.46
2019-01-23T01:21:47.972Z,923.43
2019-01-23T01:22:56.113Z,923.43
2019-01-23T01:24:04.060Z,923.41
2019-01-23T01:25:12.124Z,923.39
2019-01-23T01:26:20.194Z,923.37
2019-01-23T01:27:28.230Z,923.36
2019-01-23T01:28:36.342Z,923.36
2019-01-23T01:29:44.332Z,923.31
2019-01-23T01:30:52.400Z,923.29
2019-01-23T01:32:00.503Z,923.27
2019-01-23T01:33:08.549Z,923.28
2019-01-23T01:34:16.582Z,923.30
2019-01-23T01:35:24.595Z,923.26
2019-01-23T01:36:32.666Z,923.28
2019-01-23T01:37:40.759Z,923.23
2019-01-23T01:38:48.824Z,923.21
2019-01-23T01:39:56.829Z,923.22
2019-01-23T01:41:04.887Z,923.23
2019-01-23T01:42:12.922Z,923.18
2019-01-23T01:43:21.040Z,923.16
2019-01-23T01:44:29.040Z,923.19
2019-01-23T01:45:37.140Z,923.13
2019-01-23T01:46:45.195Z,923.18
2019-01-23T01:47:53.199Z,923.15
2019-01-23T01:49:01.356Z,923.11
2019-01-23T01:50:09.310Z,923.14
2019-01-23T01:51:17.386Z,923.15
2019-01-23T01:52:25.409Z,923.09
2019-01-23T01:53:33.573Z,923.05
2019-01-23T01:54:41.526Z,923.08
2019-01-23T01:55:49.593Z,923.05
2019-01-23T01:56:57.656Z,923.04
2019-01-23T01:58:09.945Z,923.02
2019-01-23T01:59:13.739Z,922.99
2019-01-23T02:00:21.793Z,923.00
2019-01-23T02:01:29.833Z,922.96
2019-01-23T02:02:37.902Z,922.95
2019-01-23T02:03:46.062Z,922.94
2019-01-23T02:04:54.014Z,922.96
2019-01-23T02:06:02.062Z,922.94
2019-01-23T02:07:10.114Z,922.89
2019-01-23T02:08:18.275Z,922.85
2019-01-23T02:09:26.205Z,922.84
2019-01-23T02:10:34.282Z,922.84
2019-01-23T02:11:42.315Z,922.86
2019-01-23T02:12:50.409Z,922.82
2019-01-23T02:13:58.495Z,922.79
2019-01-23T02:15:06.500Z,922.78
2019-01-23T02:16:14.517Z,922.78
2019-01-23T02:17:22.779Z,922.79
2019-01-23T02:18:30.684Z,922.78
2019-01-23T02:19:38.696Z,922.76
2019-01-23T02:20:46.772Z,922.74
2019-01-23T02:21:54.986Z,922.73
2019-01-23T02:23:02.941Z,922.74
2019-01-23T02:24:11.026Z,922.70
2019-01-23T02:25:18.983Z,922.72
2019-01-23T02:26:27.036Z,922.69
2019-01-23T02:27:35.092Z,922.68
2019-01-23T02:28:43.245Z,922.65
2019-01-23T02:29:51.207Z,922.68
2019-01-23T02:30:59.251Z,922.68
2019-01-23T02:32:07.290Z,922.68
2019-01-23T02:33:15.363Z,922.66
2019-01-23T02:34:23.460Z,922.63
2019-01-23T02:35:31.482Z,922.60
2019-01-23T02:36:39.513Z,922.55
2019-01-23T02:37:47.566Z,922.53
2019-01-23T02:38:55.723Z,922.48
2019-01-23T02:40:03.791Z,922.48
2019-01-23T02:41:11.746Z,922.48
2019-01-23T02:42:19.793Z,922.45
2019-01-23T02:43:27.848Z,922.44
2019-01-23T02:44:35.932Z,922.43
2019-01-23T02:45:43.926Z,922.45
2019-01-23T02:46:51.997Z,922.43
2019-01-23T02:48:00.063Z,922.39
2019-01-23T02:49:08.158Z,922.38
2019-01-23T02:50:16.166Z,922.42
2019-01-23T02:51:24.183Z,922.43
2019-01-23T02:52:32.296Z,922.39
2019-01-23T02:53:40.338Z,922.37
2019-01-23T02:54:48.438Z,922.33
2019-01-23T02:55:56.525Z,922.30
2019-01-23T02:57:04.489Z,922.25
2019-01-23T02:58:12.538Z,922.24
2019-01-23T02:59:20.656Z,922.23
2019-01-23T03:00:28.650Z,922.22
2019-01-23T03:01:36.697Z,922.16
2019-01-23T03:02:44.745Z,922.09
2019-01-23T03:03:52.795Z,922.10
2019-01-23T03:05:00.955Z,922.09
2019-01-23T03:06:08.908Z,922.07
2019-01-23T03:07:16.986Z,922.06
2019-01-23T03:08:25.169Z,921.99
2019-01-23T03:09:33.116Z,922.03
2019-01-23T03:10:41.144Z,922.02
2019-01-23T03:11:49.282Z,921.98
2019-01-23T03:12:57.252Z,922.00
2019-01-23T03:14:05.290Z,921.99
2019-01-23T03:15:13.389Z,921.94
2019-01-23T03:16:21.406Z,921.96
2019-01-23T03:17:29.466Z,921.93
2019-01-23T03:18:37.515Z,921.91
2019-01-23T03:19:45.620Z,921.85
2019-01-23T03:20:53.599Z,921.84
2019-01-23T03:22:01.692Z,921.88
2019-01-23T03:23:09.727Z,921.86
2019-01-23T03:24:17.773Z,921.81
2019-01-23T03:25:25.892Z,921.84
2019-01-23T03:26:33.882Z,921.81
2019-01-23T03:27:42.005Z,921.80
2019-01-23T03:28:49.994Z,921.80
2019-01-23T03:29:58.094Z,921.80
2019-01-23T03:31:06.119Z,921.78
2019-01-23T03:32:14.150Z,921.73
2019-01-23T03:33:22.955Z,921.72
2019-01-23T03:34:30.264Z,921.72
2019-01-23T03:35:38.374Z,921.73
2019-01-23T03:36:46.373Z,921.69
2019-01-23T03:37:54.417Z,921.69
2019-01-23T03:39:02.475Z,921.69
2019-01-23T03:40:10.612Z,921.69
2019-01-23T03:41:18.606Z,921.71
2019-01-23T03:42:26.735Z,921.67
2019-01-23T03:43:34.673Z,921.68
2019-01-23T03:44:42.762Z,921.65
2019-01-23T03:45:50.858Z,921.62
2019-01-23T03:46:58.872Z,921.63
2019-01-23T03:48:06.935Z,921.60
2019-01-23T03:49:15.006Z,921.60
2019-01-23T03:50:23.083Z,921.60
2019-01-23T03:51:31.083Z,921.59
2019-01-23T03:52:39.119Z,921.58
2019-01-23T03:53:47.198Z,921.53
2019-01-23T03:54:55.239Z,921.49
2019-01-23T03:56:03.357Z,921.50
2019-01-23T03:57:11.341Z,921.46
2019-01-23T03:58:19.506Z,921.45
2019-01-23T03:59:32.114Z,921.41
2019-01-23T04:00:35.563Z,921.41
2019-01-23T04:01:43.610Z,921.39
2019-01-23T04:02:51.629Z,921.37
2019-01-23T04:03:59.682Z,921.38
2019-01-23T04:05:07.744Z,921.33
2019-01-23T04:06:15.793Z,921.37
2019-01-23T04:07:23.835Z,921.34
2019-01-23T04:08:31.929Z,921.32
2019-01-23T04:09:39.943Z,921.35
2019-01-23T04:10:48.052Z,921.31
2019-01-23T04:11:56.063Z,921.30
2019-01-23T04:13:04.155Z,921.29
2019-01-23T04:14:12.148Z,921.28
2019-01-23T04:15:20.196Z,921.29
2019-01-23T04:16:28.283Z,921.32
2019-01-23T04:17:36.307Z,921.27
2019-01-23T04:18:44.379Z,921.23
2019-01-23T04:19:52.445Z,921.20
2019-01-23T04:21:00.532Z,921.24
2019-01-23T04:22:08.536Z,921.23
2019-01-23T04:23:16.604Z,921.23
2019-01-23T04:24:24.636Z,921.22
2019-01-23T04:25:32.789Z,921.18
2019-01-23T04:26:40.771Z,921.22
2019-01-23T04:27:48.927Z,921.21
2019-01-23T04:28:56.895Z,921.19
2019-01-23T04:30:04.931Z,921.22
2019-01-23T04:31:13.010Z,921.16
2019-01-23T04:32:21.019Z,921.23
2019-01-23T04:33:29.085Z,921.18
2019-01-23T04:34:37.118Z,921.19
2019-01-23T04:35:45.282Z,921.15
2019-01-23T04:36:53.230Z,921.15
2019-01-23T04:38:01.296Z,921.18
2019-01-23T04:39:09.372Z,921.13
2019-01-23T04:40:17.399Z,921.14
2019-01-23T04:41:25.502Z,921.13
2019-01-23T04:42:33.505Z,921.13
2019-01-23T04:43:41.806Z,921.07
2019-01-23T04:44:49.614Z,921.12
2019-01-23T04:45:57.717Z,921.08
2019-01-23T04:47:05.759Z,921.10
2019-01-23T04:48:13.771Z,921.04
2019-01-23T04:49:21.817Z,921.05
2019-01-23T04:50:29.886Z,921.01
2019-01-23T04:51:37.982Z,921.03
2019-01-23T04:52:45.993Z,920.97
2019-01-23T04:53:54.024Z,920.99
2019-01-23T04:55:02.104Z,920.94
2019-01-23T04:56:10.207Z,920.99
2019-01-23T04:57:18.201Z,920.94
2019-01-23T04:58:26.268Z,920.90
2019-01-23T04:59:34.406Z,920.84
2019-01-23T05:00:42.383Z,920.82
2019-01-23T05:01:50.475Z,920.83
2019-01-23T05:02:58.472Z,920.82
2019-01-23T05:04:06.535Z,920.81
2019-01-23T05:05:14.596Z,920.80
2019-01-23T05:06:22.686Z,920.80
2019-01-23T05:07:30.706Z,920.83
2019-01-23T05:08:38.745Z,920.84
2019-01-23T05:09:46.796Z,920.85
2019-01-23T05:10:54.862Z,920.85
2019-01-23T05:12:02.956Z,920.86
2019-01-23T05:13:10.976Z,920.81
2019-01-23T05:14:19.006Z,920.79
2019-01-23T05:15:27.185Z,920.83
2019-01-23T05:16:35.177Z,920.81
2019-01-23T05:17:43.174Z,920.81
2019-01-23T05:18:51.245Z,920.77
2019-01-23T05:19:59.294Z,920.76
2019-01-23T05:21:07.373Z,920.73
2019-01-23T05:22:15.473Z,920.72
2019-01-23T05:23:23.454Z,920.73
2019-01-23T05:24:31.506Z,920.70
2019-01-23T05:25:39.552Z,920.73
2019-01-23T05:26:47.690Z,920.69
2019-01-23T05:27:55.641Z,920.71
2019-01-23T05:29:03.694Z,920.69
2019-01-23T05:30:11.769Z,920.64
2019-01-23T05:31:19.923Z,920.63
2019-01-23T05:32:27.982Z,920.65
2019-01-23T05:33:35.936Z,920.62
2019-01-23T05:34:43.990Z,920.61
2019-01-23T05:35:52.040Z,920.64
2019-01-23T05:37:00.127Z,920.65
2019-01-23T05:38:08.776Z,920.59
2019-01-23T05:39:16.202Z,920.62
2019-01-23T05:40:24.279Z,920.63
2019-01-23T05:41:32.726Z,920.60
2019-01-23T05:42:40.404Z,920.60
2019-01-23T05:43:48.412Z,920.57
2019-01-23T05:44:56.466Z,920.56
2019-01-23T05:46:04.506Z,920.58
2019-01-23T05:47:12.673Z,920.56
2019-01-23T05:48:20.631Z,920.58
2019-01-23T05:49:28.691Z,920.55
2019-01-23T05:50:36.735Z,920.57
2019-01-23T05:51:45.090Z,920.62
2019-01-23T05:52:53.419Z,920.58
2019-01-23T05:54:01.879Z,920.54
2019-01-23T05:55:11.553Z,920.56
2019-01-23T05:56:17.939Z,920.54
2019-01-23T05:57:25.973Z,920.56
2019-01-23T05:58:33.761Z,920.56
2019-01-23T05:59:42.166Z,920.54
2019-01-23T06:00:49.949Z,920.56
2019-01-23T06:01:58.337Z,920.54
2019-01-23T06:03:05.989Z,920.53
2019-01-23T06:04:15.011Z,920.47
2019-01-23T06:05:21.998Z,920.47
2019-01-23T06:06:30.104Z,920.44
2019-01-23T06:07:38.429Z,920.43
2019-01-23T06:08:47.352Z,920.44
2019-01-23T06:09:55.833Z,920.48
2019-01-23T06:11:02.034Z,920.48
2019-01-23T06:12:10.738Z,920.49
2019-01-23T06:13:19.361Z,920.52
2019-01-23T06:14:26.476Z,920.54
2019-01-23T06:15:34.560Z,920.49
2019-01-23T06:16:42.592Z,920.47
2019-01-23T06:17:51.428Z,920.51
2019-01-23T06:18:58.735Z,920.49
2019-01-23T06:20:06.772Z,920.50
2019-01-23T06:21:15.202Z,920.49
2019-01-23T06:22:22.951Z,920.48
2019-01-23T06:23:30.893Z,920.53
2019-01-23T06:24:39.017Z,920.48
2019-01-23T06:25:47.004Z,920.46
2019-01-23T06:26:55.086Z,920.50
2019-01-23T06:28:04.951Z,920.49
2019-01-23T06:29:11.159Z,920.48
2019-01-23T06:30:19.210Z,920.48
2019-01-23T06:31:27.314Z,920.46
2019-01-23T06:32:35.599Z,920.48
2019-01-23T06:33:45.066Z,920.45
2019-01-23T06:34:53.158Z,920.44
2019-01-23T06:35:59.490Z,920.45
2019-01-23T06:37:07.589Z,920.42
2019-01-23T06:38:15.889Z,920.37
2019-01-23T06:39:23.670Z,920.39
2019-01-23T06:40:31.691Z,920.36
2019-01-23T06:41:39.671Z,920.33
2019-01-23T06:42:48.030Z,920.29
2019-01-23T06:43:55.846Z,920.33
2019-01-23T06:45:03.938Z,920.32
2019-01-23T06:46:11.962Z,920.32
2019-01-23T06:47:20.057Z,920.28
2019-01-23T06:48:28.354Z,920.29
2019-01-23T06:49:36.112Z,920.27
2019-01-23T06:50:44.210Z,920.27
2019-01-23T06:51:52.160Z,920.28
2019-01-23T06:53:00.788Z,920.27
2019-01-23T06:54:08.378Z,920.27
2019-01-23T06:55:16.356Z,920.25
2019-01-23T06:56:24.493Z,920.25
2019-01-23T06:57:32.546Z,920.21
2019-01-23T06:58:40.698Z,920.21
2019-01-23T06:59:48.635Z,920.19
2019-01-23T07:00:56.580Z,920.16
2019-01-23T07:02:04.607Z,920.18
2019-01-23T07:03:13.264Z,920.20
2019-01-23T07:04:21.301Z,920.21
2019-01-23T07:05:28.704Z,920.20
2019-01-23T07:06:36.995Z,920.15
2019-01-23T07:07:45.012Z,920.20
2019-01-23T07:09:00.252Z,920.19
2019-01-23T07:10:01.170Z,920.18
2019-01-23T07:11:09.210Z,920.17
2019-01-23T07:12:17.277Z,920.13
2019-01-23T07:13:25.682Z,920.15
2019-01-23T07:14:34.613Z,920.16
2019-01-23T07:15:41.354Z,920.11
2019-01-23T07:16:49.448Z,920.12
2019-01-23T07:17:57.399Z,920.09
2019-01-23T07:19:06.038Z,920.07
2019-01-23T07:20:14.635Z,920.08
2019-01-23T07:21:21.689Z,920.09
2019-01-23T07:22:29.608Z,920.09
2019-01-23T07:23:37.302Z,920.08
2019-01-23T07:24:46.146Z,920.15
2019-01-23T07:25:53.779Z,920.13
2019-01-23T07:27:01.876Z,920.16
2019-01-23T07:28:09.937Z,920.16
2019-01-23T07:29:17.983Z,920.16
2019-01-23T07:30:26.057Z,920.12
2019-01-23T07:31:33.977Z,920.13
2019-01-23T07:32:42.153Z,920.13
2019-01-23T07:33:50.675Z,920.11
2019-01-23T07:34:58.248Z,920.11
2019-01-23T07:36:06.256Z,920.13
2019-01-23T07:37:14.375Z,920.09
2019-01-23T07:38:22.420Z,920.08
2019-01-23T07:39:30.713Z,920.07
2019-01-23T07:40:38.729Z,920.11
2019-01-23T07:41:46.362Z,920.08
2019-01-23T07:42:54.816Z,920.12
2019-01-23T07:44:02.917Z,920.12
2019-01-23T07:45:10.731Z,920.15
2019-01-23T07:46:18.827Z,920.10
2019-01-23T07:47:26.916Z,920.10
2019-01-23T07:48:34.923Z,920.10
2019-01-23T07:49:43.185Z,920.10
2019-01-23T07:50:50.960Z,920.11
2019-01-23T07:51:59.152Z,920.10
2019-01-23T07:53:07.181Z,920.10
2019-01-23T07:54:15.484Z,920.11
2019-01-23T07:55:23.165Z,920.11
2019-01-23T07:56:31.263Z,920.10
2019-01-23T07:57:39.320Z,920.09
2019-01-23T07:58:47.363Z,920.09
2019-01-23T07:59:55.897Z,920.06
2019-01-23T08:01:03.547Z,920.10
2019-01-23T08:02:11.453Z,920.10
2019-01-23T08:03:20.595Z,920.07
2019-01-23T08:04:28.041Z,920.03
2019-01-23T08:05:35.527Z,920.06
2019-01-23T08:06:43.783Z,920.03
2019-01-23T08:07:51.769Z,920.04
2019-01-23T08:09:00.268Z,920.03
2019-01-23T08:10:08.300Z,920.07
2019-01-23T08:11:15.999Z,920.01
2019-01-23T08:12:23.463Z,920.07
2019-01-23T08:13:31.545Z,920.08
2019-01-23T08:14:39.618Z,920.09
2019-01-23T08:15:47.602Z,920.06
2019-01-23T08:16:55.663Z,920.06
2019-01-23T08:18:03.772Z,920.05
2019-01-23T08:19:11.778Z,920.02
2019-01-23T08:20:19.817Z,920.03
2019-01-23T08:21:27.897Z,920.01
2019-01-23T08:22:35.947Z,919.96
2019-01-23T08:23:43.986Z,919.99
2019-01-23T08:24:52.094Z,919.96
2019-01-23T08:26:00.092Z,919.98
2019-01-23T08:27:08.161Z,919.97
2019-01-23T08:28:16.247Z,920.00
2019-01-23T08:29:24.241Z,920.01
2019-01-23T08:30:38.557Z,920.01
2019-01-23T08:31:40.378Z,920.00
2019-01-23T08:32:48.524Z,919.99
2019-01-23T08:33:56.487Z,920.00
2019-01-23T08:35:04.552Z,920.00
2019-01-23T08:36:12.589Z,919.97
2019-01-23T08:37:20.647Z,919.99
2019-01-23T08:38:28.697Z,919.99
2019-01-23T08:39:36.754Z,919.99
2019-01-23T08:40:44.785Z,919.97
2019-01-23T08:41:52.864Z,919.99
2019-01-23T08:43:00.930Z,920.00
2019-01-23T08:44:08.961Z,919.98
2019-01-23T08:45:17.061Z,919.97
2019-01-23T08:46:25.103Z,920.00
2019-01-23T08:47:33.131Z,919.97
2019-01-23T08:48:41.284Z,919.99
2019-01-23T08:49:49.349Z,920.02
2019-01-23T08:50:57.298Z,920.03
2019-01-23T08:52:05.343Z,920.03
2019-01-23T08:53:13.431Z,920.02
2019-01-23T08:54:21.469Z,920.00
2019-01-23T08:55:29.569Z,920.02
2019-01-23T08:56:37.565Z,920.02
2019-01-23T08:57:45.626Z,920.02
2019-01-23T08:58:53.690Z,920.01
2019-01-23T09:00:01.838Z,920.02
2019-01-23T09:01:09.795Z,920.02
2019-01-23T09:02:17.835Z,920.02
2019-01-23T09:03:25.902Z,920.03
2019-01-23T09:04:34.057Z,920.09
2019-01-23T09:05:42.071Z,920.10
2019-01-23T09:06:50.097Z,920.12
2019-01-23T09:07:58.107Z,920.09
2019-01-23T09:09:06.177Z,920.09
2019-01-23T09:10:14.284Z,920.10
2019-01-23T09:11:22.280Z,920.07
2019-01-23T09:12:30.329Z,920.07
2019-01-23T09:13:38.404Z,920.06
2019-01-23T09:14:46.478Z,920.03
2019-01-23T09:15:54.533Z,919.99
2019-01-23T09:17:02.573Z,920.02
2019-01-23T09:18:10.662Z,919.98
2019-01-23T09:19:18.678Z,920.01
2019-01-23T09:20:26.846Z,919.98
2019-01-23T09:21:34.779Z,919.95
2019-01-23T09:22:42.841Z,920.00
2019-01-23T09:23:50.905Z,919.96
2019-01-23T09:24:58.984Z,919.96
2019-01-23T09:26:07.054Z,919.96
2019-01-23T09:27:15.069Z,919.93
2019-01-23T09:28:23.113Z,919.99
2019-01-23T09:29:31.180Z,919.98
2019-01-23T09:30:39.272Z,919.96
2019-01-23T09:31:47.292Z,919.97
2019-01-23T09:32:55.355Z,919.99
2019-01-23T09:34:03.396Z,919.98
2019-01-23T09:35:11.455Z,919.98
2019-01-23T09:36:19.619Z,919.98
2019-01-23T09:37:27.577Z,920.00
2019-01-23T09:38:35.612Z,919.99
2019-01-23T09:39:43.676Z,919.96
2019-01-23T09:40:51.774Z,919.94
2019-01-23T09:41:59.791Z,919.96
2019-01-23T09:43:07.894Z,919.92
2019-01-23T09:44:15.900Z,919.92
2019-01-23T09:45:23.930Z,919.92
2019-01-23T09:46:32.053Z,919.92
2019-01-23T09:47:40.061Z,919.92
2019-01-23T09:48:48.144Z,919.94
2019-01-23T09:49:56.200Z,919.88
2019-01-23T09:51:04.305Z,919.89
2019-01-23T09:52:12.398Z,919.88
2019-01-23T09:53:20.357Z,919.85
2019-01-23T09:54:28.426Z,919.86
2019-01-23T09:55:36.480Z,919.86
2019-01-23T09:56:44.564Z,919.88
2019-01-23T09:57:52.572Z,919.91
2019-01-23T09:59:02.553Z,919.88
2019-01-23T10:00:08.738Z,919.92
2019-01-23T10:01:16.799Z,919.87
2019-01-23T10:02:24.788Z,919.85
2019-01-23T10:03:32.860Z,919.86
2019-01-23T10:04:40.905Z,919.81
2019-01-23T10:05:48.994Z,919.78
2019-01-23T10:06:57.075Z,919.78
2019-01-23T10:08:05.136Z,919.79
2019-01-23T10:09:13.148Z,919.82
2019-01-23T10:10:21.198Z,919.80
2019-01-23T10:11:29.315Z,919.84
2019-01-23T10:12:37.317Z,919.80
2019-01-23T10:13:45.386Z,919.79
2019-01-23T10:14:53.429Z,919.79
2019-01-23T10:16:01.484Z,919.76
2019-01-23T10:17:09.647Z,919.73
2019-01-23T10:18:17.600Z,919.74
2019-01-23T10:19:25.666Z,919.75
2019-01-23T10:20:33.708Z,919.74
2019-01-23T10:21:41.828Z,919.70
2019-01-23T10:22:49.930Z,919.69
2019-01-23T10:23:57.893Z,919.71
2019-01-23T10:25:05.952Z,919.69
2019-01-23T10:26:13.995Z,919.68
2019-01-23T10:27:22.156Z,919.67
2019-01-23T10:28:30.107Z,919.68
2019-01-23T10:29:38.180Z,919.68
2019-01-23T10:30:46.265Z,919.68
2019-01-23T10:31:54.416Z,919.72
2019-01-23T10:33:02.361Z,919.70
2019-01-23T10:34:10.399Z,919.72
2019-01-23T10:35:18.497Z,919.72
2019-01-23T10:36:26.545Z,919.72
2019-01-23T10:37:34.685Z,919.72
2019-01-23T10:38:42.705Z,919.72
2019-01-23T10:39:50.709Z,919.70
2019-01-23T10:40:58.808Z,919.70
2019-01-23T10:42:06.953Z,919.67
2019-01-23T10:43:14.889Z,919.69
2019-01-23T10:44:22.944Z,919.64
2019-01-23T10:45:30.993Z,919.65
2019-01-23T10:46:39.066Z,919.68
2019-01-23T10:47:47.161Z,919.59
2019-01-23T10:48:55.172Z,919.61
2019-01-23T10:50:03.225Z,919.62
2019-01-23T10:51:11.296Z,919.57
2019-01-23T10:52:19.545Z,919.52
2019-01-23T10:53:27.406Z,919.55
2019-01-23T10:54:35.557Z,919.51
2019-01-23T10:55:43.511Z,919.46
2019-01-23T10:56:51.574Z,919.49
2019-01-23T10:57:59.629Z,919.50
2019-01-23T10:59:07.702Z,919.50
2019-01-23T11:00:15.762Z,919.53
2019-01-23T11:01:23.799Z,919.50
2019-01-23T11:02:31.911Z,919.53
2019-01-23T11:03:39.926Z,919.54
2019-01-23T11:04:47.979Z,919.51
2019-01-23T11:05:56.051Z,919.53
2019-01-23T11:07:04.078Z,919.51
2019-01-23T11:08:12.162Z,919.47
2019-01-23T11:09:20.223Z,919.45
2019-01-23T11:10:28.361Z,919.47
2019-01-23T11:11:36.322Z,919.46
2019-01-23T11:12:44.422Z,919.43
2019-01-23T11:13:52.453Z,919.38
2019-01-23T11:15:00.509Z,919.47
2019-01-23T11:16:08.563Z,919.46
2019-01-23T11:17:16.627Z,919.48
2019-01-23T11:18:24.666Z,919.45
2019-01-23T11:19:32.739Z,919.49
2019-01-23T11:20:40.818Z,919.49
2019-01-23T11:21:48.856Z,919.47
2019-01-23T11:22:56.994Z,919.49
2019-01-23T11:24:04.965Z,919.49
2019-01-23T11:25:13.042Z,919.50
2019-01-23T11:26:21.178Z,919.51
2019-01-23T11:27:29.211Z,919.48
2019-01-23T11:28:37.208Z,919.45
2019-01-23T11:29:45.272Z,919.46
2019-01-23T11:30:53.322Z,919.43
2019-01-23T11:32:01.380Z,919.42
2019-01-23T11:33:09.480Z,919.41
2019-01-23T11:34:17.497Z,919.37
2019-01-23T11:35:25.576Z,919.33
2019-01-23T11:36:33.622Z,919.33
2019-01-23T11:37:41.720Z,919.37
2019-01-23T11:38:49.738Z,919.39
2019-01-23T11:39:57.802Z,919.38
2019-01-23T11:41:05.860Z,919.41
2019-01-23T11:42:13.989Z,919.38
2019-01-23T11:43:22.016Z,919.39
2019-01-23T11:44:30.038Z,919.38
2019-01-23T11:45:38.082Z,919.36
2019-01-23T11:46:46.131Z,919.33
2019-01-23T11:47:54.216Z,919.37
2019-01-23T11:49:02.252Z,919.34
2019-01-23T11:50:10.339Z,919.29
2019-01-23T11:51:18.378Z,919.27
2019-01-23T11:52:26.438Z,919.26
2019-01-23T11:53:34.527Z,919.27
2019-01-23T11:54:42.551Z,919.26
2019-01-23T11:55:50.608Z,919.24
2019-01-23T11:56:58.680Z,919.27
2019-01-23T11:58:06.828Z,919.23
2019-01-23T11:59:14.761Z,919.23
2019-01-23T12:00:22.849Z,919.25
2019-01-23T12:01:30.919Z,919.26
2019-01-23T12:02:38.991Z,919.25
2019-01-23T12:03:47.156Z,919.23
2019-01-23T12:04:55.077Z,919.23
2019-01-23T12:06:03.142Z,919.22
2019-01-23T12:07:11.193Z,919.19
2019-01-23T12:08:19.292Z,919.19
2019-01-23T12:09:27.307Z,919.17
2019-01-23T12:10:35.379Z,919.16
2019-01-23T12:11:43.430Z,919.19
2019-01-23T12:12:51.593Z,919.14
2019-01-23T12:13:59.602Z,919.14
2019-01-23T12:15:07.606Z,919.22
2019-01-23T12:16:15.656Z,919.21
2019-01-23T12:17:23.717Z,919.20
2019-01-23T12:18:31.831Z,919.16
2019-01-23T12:19:39.845Z,919.12
2019-01-23T12:20:47.925Z,919.08
2019-01-23T12:21:55.986Z,919.08
2019-01-23T12:23:03.984Z,919.14
2019-01-23T12:24:12.125Z,919.14
2019-01-23T12:25:20.157Z,919.11
2019-01-23T12:26:28.187Z,919.10
2019-01-23T12:27:36.313Z,919.10
2019-01-23T12:28:44.390Z,919.07
2019-01-23T12:29:52.371Z,919.03
2019-01-23T12:31:00.441Z,919.04
2019-01-23T12:32:08.480Z,919.05
2019-01-23T12:33:16.564Z,919.07
2019-01-23T12:34:24.700Z,919.08
2019-01-23T12:35:32.670Z,919.14
2019-01-23T12:36:40.728Z,919.14
2019-01-23T12:37:48.787Z,919.13
2019-01-23T12:38:56.885Z,919.18
2019-01-23T12:40:04.971Z,919.13
2019-01-23T12:41:12.962Z,919.06
2019-01-23T12:42:21.017Z,919.12
2019-01-23T12:43:29.131Z,919.06
2019-01-23T12:44:37.176Z,919.04
2019-01-23T12:45:45.199Z,919.04
2019-01-23T12:46:53.259Z,919.04
2019-01-23T12:48:01.296Z,919.09
2019-01-23T12:49:09.420Z,919.05
2019-01-23T12:50:17.437Z,919.03
2019-01-23T12:51:25.511Z,918.98
2019-01-23T12:52:33.549Z,918.98
2019-01-23T12:53:41.588Z,918.98
2019-01-23T12:54:49.683Z,919.00
2019-01-23T12:55:57.730Z,919.00
2019-01-23T12:57:05.793Z,919.01
2019-01-23T12:58:13.931Z,919.01
2019-01-23T12:59:21.958Z,919.03
2019-01-23T13:00:29.974Z,919.03
2019-01-23T13:01:41.905Z,919.00
2019-01-23T13:02:46.084Z,919.05
2019-01-23T13:03:54.121Z,919.06
2019-01-23T13:05:02.203Z,919.08
2019-01-23T13:06:10.268Z,919.07
2019-01-23T13:07:18.341Z,919.08
2019-01-23T13:08:26.393Z,919.06
2019-01-23T13:09:34.460Z,919.09
2019-01-23T13:10:42.509Z,919.08
2019-01-23T13:11:50.576Z,919.07
2019-01-23T13:12:58.622Z,919.07
2019-01-23T13:14:06.771Z,919.12
2019-01-23T13:15:14.742Z,919.10
2019-01-23T13:16:22.800Z,919.05
2019-01-23T13:17:31.868Z,919.11
2019-01-23T13:18:38.894Z,919.09
2019-01-23T13:19:47.028Z,919.12
2019-01-23T13:20:55.031Z,919.10
2019-01-23T13:22:03.084Z,919.06
2019-01-23T13:23:11.187Z,919.11
2019-01-23T13:24:19.310Z,919.13
2019-01-23T13:25:27.246Z,919.15
2019-01-23T13:26:35.322Z,919.16
2019-01-23T13:27:43.374Z,919.12
2019-01-23T13:28:51.430Z,919.16
2019-01-23T13:29:59.717Z,919.16
2019-01-23T13:31:07.563Z,919.12
2019-01-23T13:32:15.604Z,919.12
2019-01-23T13:33:23.651Z,919.13
2019-01-23T13:34:31.849Z,919.12
2019-01-23T13:35:39.805Z,919.12
2019-01-23T13:36:47.850Z,919.10
2019-01-23T13:37:55.932Z,919.10
2019-01-23T13:39:03.958Z,919.09
2019-01-23T13:40:12.063Z,919.13
2019-01-23T13:41:20.079Z,919.14
2019-01-23T13:42:28.140Z,919.14
2019-01-23T13:43:36.200Z,919.10
2019-01-23T13:44:44.309Z,919.09
2019-01-23T13:45:52.542Z,919.11
2019-01-23T13:47:00.375Z,919.15
2019-01-23T13:48:08.436Z,919.14
2019-01-23T13:49:16.486Z,919.09
2019-01-23T13:50:24.590Z,919.08
2019-01-23T13:51:32.600Z,919.14
2019-01-23T13:52:40.664Z,919.13
2019-01-23T13:53:48.732Z,919.08
2019-01-23T13:54:56.842Z,919.11
2019-01-23T13:56:04.837Z,919.11
2019-01-23T13:57:12.906Z,919.09
2019-01-23T13:58:20.943Z,919.10
2019-01-23T13:59:29.021Z,919.10
2019-01-23T14:00:37.115Z,919.09
2019-01-23T14:01:45.220Z,919.05
2019-01-23T14:02:53.188Z,919.07
2019-01-23T14:04:01.231Z,919.07
2019-01-23T14:05:09.340Z,919.01
2019-01-23T14:06:17.373Z,919.05
2019-01-23T14:07:25.433Z,919.07
2019-01-23T14:08:33.471Z,919.10